Bhakkar Weather



Bhakkar's Current Weather

Temprature 14.51o overcast clouds

overcast clouds

Rain: 0 %

Min Temprature14.51o
Max Temprature14.51o
Humidity62
Wind Speed5.48 m/h
Sun Rise07:11:57
Sun Set17:44:24
Current Time: 27-Jan-2020 18:28:10
Lat/Lon: 31.63, 71.07




Bhakkar's Geo Location



Bhakkar's Weather Forecast

Time Overall Temp Min Temp Max Temp Humidity Wind Speed Rain
27-Jan-2020 (Mon)
20:00:00 broken clouds 11.900 11.900 11.900 75 2.43 m/h 0 %
23:00:00 broken clouds 12.190 12.190 12.190 69 2.58 m/h 0 %
28-Jan-2020 (Tue)
02:00:00 scattered clouds 10.550 10.550 10.550 71 2.79 m/h 0 %
05:00:00 broken clouds 11.300 11.300 11.300 60 4.35 m/h 0 %
08:00:00 broken clouds 11.170 11.170 11.170 71 3.27 m/h 0 %
11:00:00 broken clouds 16.500 16.500 16.500 43 3.85 m/h 0 %
14:00:00 broken clouds 17.900 17.900 17.900 40 3.44 m/h 0 %
17:00:00 scattered clouds 17.410 17.410 17.410 41 1.67 m/h 0 %
20:00:00 few clouds 12.990 12.990 12.990 66 3.76 m/h 0 %
23:00:00 clear sky 10.900 10.900 10.900 82 2.55 m/h 0 %
29-Jan-2020 (Wed)
02:00:00 clear sky 9.590 9.590 9.590 90 1.84 m/h 0 %
05:00:00 clear sky 7.990 7.990 7.990 93 0.6 m/h 0 %
08:00:00 clear sky 9.580 9.580 9.580 88 0.96 m/h 0 %
11:00:00 clear sky 15.220 15.220 15.220 57 1.32 m/h 0 %
14:00:00 clear sky 17.840 17.840 17.840 44 1.3 m/h 0 %
17:00:00 scattered clouds 17.380 17.380 17.380 43 0.95 m/h 0 %
20:00:00 scattered clouds 13.710 13.710 13.710 48 3.18 m/h 0 %
23:00:00 few clouds 11.140 11.140 11.140 59 0.82 m/h 0 %
30-Jan-2020 (Thu)
02:00:00 clear sky 10.120 10.120 10.120 60 2.19 m/h 0 %
05:00:00 clear sky 9.200 9.200 9.200 35 3.15 m/h 0 %
08:00:00 clear sky 9.270 9.270 9.270 32 2.87 m/h 0 %
11:00:00 scattered clouds 16.230 16.230 16.230 29 2.53 m/h 0 %
14:00:00 clear sky 18.950 18.950 18.950 26 1.19 m/h 0 %
17:00:00 clear sky 17.680 17.680 17.680 35 0.33 m/h 0 %
20:00:00 clear sky 12.010 12.010 12.010 40 0.84 m/h 0 %
23:00:00 clear sky 11.210 11.210 11.210 43 2.05 m/h 0 %
31-Jan-2020 (Fri)
02:00:00 clear sky 9.160 9.160 9.160 50 0.45 m/h 0 %
05:00:00 clear sky 8.670 8.670 8.670 50 1.57 m/h 0 %
08:00:00 clear sky 9.960 9.960 9.960 47 1.46 m/h 0 %
11:00:00 scattered clouds 17.380 17.380 17.380 28 1.51 m/h 0 %
14:00:00 broken clouds 19.900 19.900 19.900 23 0.92 m/h 0 %
17:00:00 scattered clouds 18.260 18.260 18.260 31 0.78 m/h 0 %
20:00:00 clear sky 12.660 12.660 12.660 37 1.31 m/h 0 %
23:00:00 clear sky 10.780 10.780 10.780 45 1.04 m/h 0 %
01-Feb-2020 (Sat)
02:00:00 clear sky 9.560 9.560 9.560 48 0.65 m/h 0 %
05:00:00 clear sky 9.900 9.900 9.900 43 2.25 m/h 0 %
08:00:00 clear sky 10.130 10.130 10.130 28 2.04 m/h 0 %
11:00:00 clear sky 17.960 17.960 17.960 18 1.43 m/h 0 %
14:00:00 clear sky 20.910 20.910 20.910 18 0.23 m/h 0 %
17:00:00 clear sky 19.170 19.170 19.170 28 0.93 m/h 0 %


Bhakkar's Tourist Spots

Historical Places in Bhakkar

Famous Cities (61)